createdAt,value
2019-06-10T00:01:45.339Z,18.86
2019-06-10T00:04:32.514Z,18.83
2019-06-10T00:07:07.492Z,18.89
2019-06-10T00:09:40.724Z,18.84
2019-06-10T00:12:14.902Z,18.81
2019-06-10T00:14:48.135Z,18.78
2019-06-10T00:17:21.385Z,18.75
2019-06-10T00:19:54.560Z,18.72
2019-06-10T00:22:26.810Z,18.67
2019-06-10T00:25:02.251Z,18.63
2019-06-10T00:27:36.068Z,18.67
2019-06-10T00:30:09.942Z,18.59
2019-06-10T00:32:46.395Z,18.54
2019-06-10T00:35:21.098Z,18.52
2019-06-10T00:37:54.109Z,18.49
2019-06-10T00:40:27.283Z,18.46
2019-06-10T00:43:01.870Z,18.53
2019-06-10T00:45:36.452Z,18.47
2019-06-10T00:48:21.392Z,18.44
2019-06-10T00:51:04.537Z,18.53
2019-06-10T00:53:38.684Z,18.49
2019-06-10T00:56:14.172Z,18.48
2019-06-10T00:58:51.405Z,18.45
2019-06-10T01:01:24.939Z,18.45
2019-06-10T01:03:57.139Z,18.43
2019-06-10T01:06:32.367Z,18.43
2019-06-10T01:09:08.874Z,18.45
2019-06-10T01:11:43.342Z,18.53
2019-06-10T01:14:15.644Z,18.51
2019-06-10T01:16:47.898Z,18.48
2019-06-10T01:19:21.967Z,18.46
2019-06-10T01:21:54.318Z,18.44
2019-06-10T01:24:28.282Z,18.45
2019-06-10T01:27:01.314Z,18.44
2019-06-10T01:29:35.880Z,18.47
2019-06-10T01:32:11.931Z,18.49
2019-06-10T01:34:47.256Z,18.51
2019-06-10T01:37:21.863Z,18.52
2019-06-10T01:39:55.131Z,18.50
2019-06-10T01:42:27.290Z,18.50
2019-06-10T01:45:01.197Z,18.49
2019-06-10T01:47:35.589Z,18.56
2019-06-10T01:50:09.592Z,18.52
2019-06-10T01:52:44.171Z,18.49
2019-06-10T01:55:17.019Z,18.49
2019-06-10T01:57:51.870Z,18.48
2019-06-10T02:00:36.494Z,18.48
2019-06-10T02:03:11.605Z,18.45
2019-06-10T02:05:46.717Z,18.45
2019-06-10T02:08:21.991Z,18.46
2019-06-10T02:10:55.750Z,18.44
2019-06-10T02:13:32.510Z,18.42
2019-06-10T02:16:05.401Z,18.41
2019-06-10T02:18:37.574Z,18.46
2019-06-10T02:21:13.027Z,18.45
2019-06-10T02:23:48.287Z,18.42
2019-06-10T02:26:23.698Z,18.40
2019-06-10T02:29:00.630Z,18.36
2019-06-10T02:31:37.390Z,18.34
2019-06-10T02:34:14.860Z,18.32
2019-06-10T02:36:53.398Z,18.30
2019-06-10T02:39:33.375Z,18.28
2019-06-10T02:42:19.014Z,18.25
2019-06-10T02:44:54.169Z,18.25
2019-06-10T02:47:36.173Z,18.26
2019-06-10T02:50:09.762Z,18.25
2019-06-10T02:52:44.339Z,18.27
2019-06-10T02:55:18.290Z,18.27
2019-06-10T02:57:53.275Z,18.27
2019-06-10T03:00:38.609Z,18.29
2019-06-10T03:03:22.921Z,18.32
2019-06-10T03:06:07.401Z,18.34
2019-06-10T03:08:43.548Z,18.36
2019-06-10T03:11:16.586Z,18.36
2019-06-10T03:13:53.039Z,18.39
2019-06-10T03:16:33.048Z,18.39
2019-06-10T03:19:07.282Z,18.40
2019-06-10T03:21:39.478Z,18.42
2019-06-10T03:24:13.210Z,18.43
2019-06-10T03:26:45.475Z,18.43
2019-06-10T03:29:18.553Z,18.42
2019-06-10T03:31:54.708Z,18.44
2019-06-10T03:34:36.268Z,18.46
2019-06-10T03:37:12.941Z,18.46
2019-06-10T03:39:45.184Z,18.46
2019-06-10T03:42:18.694Z,18.45
2019-06-10T03:44:52.528Z,18.45
2019-06-10T03:47:27.142Z,18.44
2019-06-10T03:50:03.004Z,18.43
2019-06-10T03:52:35.607Z,18.43
2019-06-10T03:55:07.875Z,18.44
2019-06-10T03:57:42.100Z,18.45
2019-06-10T04:00:17.515Z,18.45
2019-06-10T04:02:49.908Z,18.43
2019-06-10T04:05:23.922Z,18.43
2019-06-10T04:07:58.250Z,18.43
2019-06-10T04:10:32.361Z,18.42
2019-06-10T04:13:04.703Z,18.41
2019-06-10T04:15:36.864Z,18.42
2019-06-10T04:18:09.065Z,18.40
2019-06-10T04:20:42.905Z,18.46
2019-06-10T04:23:15.238Z,18.44
2019-06-10T04:25:47.477Z,18.43
2019-06-10T04:28:19.806Z,18.49
2019-06-10T04:30:53.601Z,18.49
2019-06-10T04:33:27.305Z,18.51
2019-06-10T04:35:59.948Z,18.52
2019-06-10T04:38:32.710Z,18.55
2019-06-10T04:41:05.654Z,18.57
2019-06-10T04:43:37.861Z,18.59
2019-06-10T04:46:12.434Z,18.61
2019-06-10T04:48:44.972Z,18.62
2019-06-10T04:51:17.224Z,18.61
2019-06-10T04:53:52.224Z,18.60
2019-06-10T04:56:27.134Z,18.58
2019-06-10T04:59:00.000Z,18.63
2019-06-10T05:01:33.589Z,18.62
2019-06-10T05:04:05.953Z,18.62
2019-06-10T05:06:38.124Z,18.64
2019-06-10T05:11:57.889Z,18.70
2019-06-10T05:14:33.403Z,18.71
2019-06-10T05:17:08.742Z,18.71
2019-06-10T05:19:47.131Z,18.75
2019-06-10T05:22:19.602Z,18.77
2019-06-10T05:24:52.876Z,18.77
2019-06-10T05:27:25.737Z,18.73
2019-06-10T05:30:02.319Z,18.74
2019-06-10T05:32:38.051Z,18.75
2019-06-10T05:35:12.221Z,18.77
2019-06-10T05:37:44.750Z,18.76
2019-06-10T05:40:17.660Z,18.75
2019-06-10T05:42:49.877Z,18.77
2019-06-10T05:45:24.490Z,18.82
2019-06-10T05:47:59.111Z,18.90
2019-06-10T05:50:33.567Z,18.93
2019-06-10T05:53:08.135Z,18.87
2019-06-10T05:55:42.715Z,18.78
2019-06-10T05:58:15.219Z,18.71
2019-06-10T06:00:47.439Z,18.68
2019-06-10T06:03:19.659Z,18.71
2019-06-10T06:05:52.480Z,18.72
2019-06-10T06:08:25.127Z,18.72
2019-06-10T06:10:57.421Z,18.76
2019-06-10T06:13:32.708Z,18.79
2019-06-10T06:16:06.690Z,18.81
2019-06-10T06:18:38.927Z,18.83
2019-06-10T06:21:25.353Z,18.88
2019-06-10T06:24:03.894Z,18.96
2019-06-10T06:26:39.293Z,18.96
2019-06-10T06:29:13.526Z,18.96
2019-06-10T06:31:46.640Z,18.95
2019-06-10T06:34:18.911Z,18.93
2019-06-10T06:36:53.098Z,18.90
2019-06-10T06:39:25.440Z,18.94
2019-06-10T06:41:57.711Z,19.03
2019-06-10T06:44:32.472Z,19.19
2019-06-10T06:47:05.945Z,19.41
2019-06-10T06:49:39.461Z,19.62
2019-06-10T06:52:12.821Z,19.84
2019-06-10T06:54:46.045Z,19.97
2019-06-10T06:57:18.214Z,19.93
2019-06-10T06:59:52.570Z,19.87
2019-06-10T07:02:25.334Z,19.82
2019-06-10T07:04:58.284Z,19.88
2019-06-10T07:07:32.813Z,19.97
2019-06-10T07:10:07.728Z,20.02
2019-06-10T07:12:41.677Z,20.10
2019-06-10T07:15:46.945Z,20.15
2019-06-10T07:18:26.898Z,20.27
2019-06-10T07:20:59.662Z,20.26
2019-06-10T07:23:37.996Z,20.29
2019-06-10T07:26:15.821Z,20.34
2019-06-10T07:28:49.636Z,20.41
2019-06-10T07:31:27.979Z,20.44
2019-06-10T07:34:02.568Z,20.49
2019-06-10T07:36:35.630Z,20.62
2019-06-10T07:39:09.219Z,20.83
2019-06-10T07:41:45.196Z,21.01
2019-06-10T07:44:34.620Z,21.16
2019-06-10T07:47:15.784Z,21.31
2019-06-10T07:49:49.253Z,21.46
2019-06-10T07:52:23.326Z,21.54
2019-06-10T07:54:55.859Z,21.56
2019-06-10T07:57:28.155Z,21.54
2019-06-10T08:00:03.126Z,21.51
2019-06-10T08:02:37.725Z,21.53
2019-06-10T08:05:23.655Z,21.59
2019-06-10T08:07:56.636Z,21.68
2019-06-10T08:10:32.814Z,21.73
2019-06-10T08:13:07.471Z,21.80
2019-06-10T08:15:42.313Z,21.79
2019-06-10T08:18:23.843Z,21.92
2019-06-10T08:20:57.318Z,22.00
2019-06-10T08:23:32.899Z,22.05
2019-06-10T08:26:05.407Z,22.07
2019-06-10T08:28:41.748Z,22.06
2019-06-10T08:31:19.549Z,21.94
2019-06-10T08:34:16.505Z,21.83
2019-06-10T08:37:04.051Z,21.80
2019-06-10T08:39:38.710Z,21.72
2019-06-10T08:43:13.405Z,21.85
2019-06-10T08:45:47.491Z,22.11
2019-06-10T08:48:23.467Z,22.31
2019-06-10T08:50:56.073Z,22.48
2019-06-10T08:53:32.734Z,22.54
2019-06-10T08:56:08.819Z,22.59
2019-06-10T08:58:49.010Z,22.63
2019-06-10T09:01:29.705Z,22.73
2019-06-10T09:04:07.344Z,22.84
2019-06-10T09:07:13.271Z,22.92
2019-06-10T09:09:51.084Z,23.07
2019-06-10T09:12:33.190Z,23.13
2019-06-10T09:15:14.298Z,23.25
2019-06-10T09:17:52.091Z,23.36
2019-06-10T09:20:44.398Z,23.51
2019-06-10T09:23:37.180Z,23.55
2019-06-10T09:26:12.533Z,23.45
2019-06-10T09:28:49.224Z,23.52
2019-06-10T09:31:28.256Z,23.73
2019-06-10T09:34:04.133Z,23.82
2019-06-10T09:36:40.900Z,23.82
2019-06-10T09:39:15.073Z,23.98
2019-06-10T09:42:05.260Z,24.08
2019-06-10T09:44:41.684Z,24.28
2019-06-10T09:47:18.140Z,24.41
2019-06-10T09:49:55.741Z,24.47
2019-06-10T09:52:32.839Z,24.58
2019-06-10T09:55:08.054Z,24.55
2019-06-10T09:57:45.094Z,24.63
2019-06-10T10:00:53.575Z,24.75
2019-06-10T10:03:33.354Z,24.99
2019-06-10T10:06:14.660Z,24.97
2019-06-10T10:08:56.536Z,25.08
2019-06-10T10:11:38.481Z,25.34
2019-06-10T10:14:16.183Z,25.67
2019-06-10T10:16:58.158Z,26.06
2019-06-10T10:19:33.218Z,26.36
2019-06-10T10:22:15.660Z,26.51
2019-06-10T10:24:49.338Z,26.45
2019-06-10T10:27:29.450Z,26.24
2019-06-10T10:30:13.569Z,26.01
2019-06-10T10:32:59.181Z,25.93
2019-06-10T10:35:52.635Z,26.00
2019-06-10T10:38:54.462Z,26.19
2019-06-10T10:42:00.343Z,26.26
2019-06-10T10:45:02.555Z,26.31
2019-06-10T10:48:02.443Z,26.43
2019-06-10T10:51:23.112Z,26.44
2019-06-10T10:54:24.690Z,26.42
2019-06-10T10:57:14.008Z,26.59
2019-06-10T10:59:55.706Z,26.89
2019-06-10T11:02:28.779Z,27.13
2019-06-10T11:05:01.464Z,27.16
2019-06-10T11:07:34.136Z,27.22
2019-06-10T11:10:07.623Z,27.28
2019-06-10T11:12:42.866Z,27.20
2019-06-10T11:18:47.175Z,27.35
2019-06-10T11:21:22.715Z,27.38
2019-06-10T11:23:59.944Z,27.48
2019-06-10T11:26:34.779Z,27.59
2019-06-10T11:29:07.323Z,27.82
2019-06-10T11:31:42.352Z,27.97
2019-06-10T11:34:15.726Z,27.92
2019-06-10T11:36:48.421Z,27.87
2019-06-10T11:39:22.543Z,28.09
2019-06-10T11:41:57.589Z,28.08
2019-06-10T11:44:33.175Z,28.12
2019-06-10T11:47:06.542Z,28.09
2019-06-10T11:49:39.355Z,27.94
2019-06-10T11:52:12.602Z,27.87
2019-06-10T11:54:55.867Z,27.79
2019-06-10T11:57:38.194Z,27.66
2019-06-10T12:00:14.838Z,27.55
2019-06-10T12:02:50.946Z,27.40
2019-06-10T12:05:25.796Z,27.33
2019-06-10T12:08:01.458Z,27.36
2019-06-10T12:10:35.349Z,27.32
2019-06-10T12:13:08.073Z,27.55
2019-06-10T12:16:13.952Z,27.71
2019-06-10T12:19:23.616Z,27.78
2019-06-10T12:21:59.715Z,27.99
2019-06-10T12:24:36.427Z,28.27
2019-06-10T12:27:09.162Z,28.26
2019-06-10T12:29:42.310Z,28.51
2019-06-10T12:32:15.029Z,28.88
2019-06-10T12:34:47.745Z,29.08
2019-06-10T12:37:23.684Z,29.06
2019-06-10T12:39:59.422Z,28.89
2019-06-10T12:42:33.573Z,28.64
2019-06-10T12:45:15.358Z,28.35
2019-06-10T12:47:48.033Z,28.24
2019-06-10T12:50:20.579Z,28.10
2019-06-10T12:52:54.984Z,27.78
2019-06-10T12:55:42.144Z,27.52
2019-06-10T12:58:16.137Z,27.29
2019-06-10T13:00:48.883Z,27.13
2019-06-10T13:03:23.581Z,27.06
2019-06-10T13:05:57.761Z,26.95
2019-06-10T13:08:33.056Z,26.79
2019-06-10T13:11:06.175Z,26.71
2019-06-10T13:13:38.936Z,26.61
2019-06-10T13:16:14.205Z,26.50
2019-06-10T13:18:47.363Z,26.49
2019-06-10T13:21:22.574Z,26.54
2019-06-10T13:23:56.030Z,26.61
2019-06-10T13:26:32.146Z,26.75
2019-06-10T13:29:09.605Z,26.83
2019-06-10T13:31:43.718Z,26.71
2019-06-10T13:34:16.564Z,26.61
2019-06-10T13:36:49.301Z,26.37
2019-06-10T13:39:22.386Z,26.20
2019-06-10T13:41:55.285Z,25.89
2019-06-10T13:44:28.127Z,25.79
2019-06-10T13:47:05.205Z,25.75
2019-06-10T13:49:42.828Z,25.63
2019-06-10T13:52:16.786Z,25.64
2019-06-10T13:54:49.689Z,25.74
2019-06-10T13:57:23.007Z,25.92
2019-06-10T13:59:55.882Z,26.05
2019-06-10T14:02:28.624Z,26.23
2019-06-10T14:05:06.746Z,26.38
2019-06-10T14:07:43.233Z,26.44
2019-06-10T14:10:18.119Z,26.44
2019-06-10T14:12:52.624Z,26.39
2019-06-10T14:15:25.596Z,26.44
2019-06-10T14:17:58.176Z,26.47
2019-06-10T14:20:32.533Z,26.38
2019-06-10T14:23:05.843Z,26.26
2019-06-10T14:25:38.808Z,26.04
2019-06-10T14:28:16.543Z,25.76
2019-06-10T14:31:23.051Z,25.59
2019-06-10T14:34:09.158Z,25.48
2019-06-10T14:36:43.107Z,25.49
2019-06-10T14:39:16.033Z,25.47
2019-06-10T14:41:48.850Z,25.43
2019-06-10T14:44:23.429Z,25.42
2019-06-10T14:46:56.538Z,25.34
2019-06-10T14:49:29.578Z,25.22
2019-06-10T14:52:02.727Z,25.18
2019-06-10T14:54:35.537Z,25.02
2019-06-10T14:57:09.254Z,24.94
2019-06-10T14:59:42.549Z,24.92
2019-06-10T15:02:16.103Z,24.98
2019-06-10T15:04:50.028Z,24.96
2019-06-10T15:07:23.745Z,24.95
2019-06-10T15:09:56.685Z,24.96
2019-06-10T15:12:29.282Z,25.03
2019-06-10T15:15:03.895Z,25.08
2019-06-10T15:17:36.655Z,25.21
2019-06-10T15:20:09.621Z,25.25
2019-06-10T15:22:43.148Z,25.24
2019-06-10T15:25:17.677Z,25.23
2019-06-10T15:28:13.197Z,25.26
2019-06-10T15:30:48.607Z,25.37
2019-06-10T15:33:23.719Z,25.49
2019-06-10T15:35:56.641Z,25.62
2019-06-10T15:38:29.310Z,25.59
2019-06-10T15:41:01.853Z,25.57
2019-06-10T15:43:34.534Z,25.54
2019-06-10T15:46:07.228Z,25.44
2019-06-10T15:48:42.811Z,25.50
2019-06-10T15:51:19.215Z,25.53
2019-06-10T15:53:53.870Z,25.65
2019-06-10T15:56:37.600Z,25.78
2019-06-10T15:59:18.614Z,25.84
2019-06-10T16:01:53.082Z,25.99
2019-06-10T16:04:29.507Z,26.13
2019-06-10T16:07:02.831Z,26.25
2019-06-10T16:09:35.509Z,26.26
2019-06-10T16:12:08.168Z,26.36
2019-06-10T16:14:42.482Z,26.49
2019-06-10T16:17:16.106Z,26.60
2019-06-10T16:19:52.823Z,26.59
2019-06-10T16:22:26.343Z,26.50
2019-06-10T16:24:59.362Z,26.62
2019-06-10T16:27:44.465Z,26.70
2019-06-10T16:30:23.192Z,26.66
2019-06-10T16:32:57.757Z,26.49
2019-06-10T16:35:32.227Z,26.33
2019-06-10T16:38:05.136Z,26.13
2019-06-10T16:40:38.018Z,25.96
2019-06-10T16:43:10.678Z,26.00
2019-06-10T16:45:43.887Z,26.08
2019-06-10T16:48:17.125Z,26.18
2019-06-10T16:50:53.966Z,26.16
2019-06-10T16:53:30.603Z,26.17
2019-06-10T16:56:05.052Z,26.14
2019-06-10T16:58:37.708Z,26.08
2019-06-10T17:01:12.391Z,25.96
2019-06-10T17:03:45.344Z,25.78
2019-06-10T17:06:18.023Z,25.53
2019-06-10T17:08:52.205Z,25.38
2019-06-10T17:11:27.432Z,25.37
2019-06-10T17:14:03.074Z,25.22
2019-06-10T17:16:35.700Z,25.25
2019-06-10T17:19:08.059Z,25.18
2019-06-10T17:21:42.181Z,25.10
2019-06-10T17:24:14.707Z,25.04
2019-06-10T17:26:47.051Z,24.97
2019-06-10T17:29:22.790Z,24.89
2019-06-10T17:31:57.854Z,24.69
2019-06-10T17:34:31.400Z,24.51
2019-06-10T17:37:06.001Z,24.39
2019-06-10T17:39:38.359Z,24.36
2019-06-10T17:42:12.406Z,24.20
2019-06-10T17:44:45.982Z,23.96
2019-06-10T17:47:18.283Z,23.76
2019-06-10T17:49:50.621Z,23.60
2019-06-10T17:52:24.126Z,23.40
2019-06-10T17:54:56.497Z,23.22
2019-06-10T17:57:30.572Z,23.02
2019-06-10T18:00:12.249Z,22.96
2019-06-10T18:02:47.141Z,22.91
2019-06-10T18:05:19.443Z,22.86
2019-06-10T18:07:53.579Z,22.88
2019-06-10T18:10:27.634Z,22.80
2019-06-10T18:13:13.073Z,22.67
2019-06-10T18:15:49.217Z,22.61
2019-06-10T18:18:26.376Z,22.57
2019-06-10T18:21:02.800Z,22.55
2019-06-10T18:23:35.872Z,22.54
2019-06-10T18:26:08.238Z,22.53
2019-06-10T18:28:59.711Z,22.50
2019-06-10T18:31:37.166Z,22.38
2019-06-10T18:34:09.512Z,22.37
2019-06-10T18:36:42.744Z,22.30
2019-06-10T18:39:15.404Z,22.25
2019-06-10T18:41:48.706Z,22.24
2019-06-10T18:44:24.118Z,22.29
2019-06-10T18:46:58.883Z,22.18
2019-06-10T18:49:34.033Z,22.11
2019-06-10T18:52:08.647Z,22.09
2019-06-10T18:54:43.530Z,22.03
2019-06-10T18:57:16.181Z,21.97
2019-06-10T18:59:48.904Z,21.92
2019-06-10T19:02:22.652Z,21.81
2019-06-10T19:04:55.202Z,21.81
2019-06-10T19:07:28.744Z,21.71
2019-06-10T19:10:02.385Z,21.64
2019-06-10T19:12:36.618Z,21.56
2019-06-10T19:15:11.918Z,21.36
2019-06-10T19:17:46.651Z,21.16
2019-06-10T19:20:19.126Z,21.06
2019-06-10T19:22:52.697Z,21.02
2019-06-10T19:25:25.248Z,21.02
2019-06-10T19:27:57.685Z,21.03
2019-06-10T19:30:33.512Z,21.00
2019-06-10T19:33:06.779Z,21.01
2019-06-10T19:35:39.645Z,20.91
2019-06-10T19:38:14.039Z,20.69
2019-06-10T19:40:46.505Z,20.42
2019-06-10T19:43:19.210Z,20.26
2019-06-10T19:45:52.997Z,20.26
2019-06-10T19:48:26.710Z,20.20
2019-06-10T19:50:59.724Z,20.13
2019-06-10T19:53:32.983Z,20.16
2019-06-10T19:56:06.787Z,20.03
2019-06-10T19:58:42.719Z,19.93
2019-06-10T20:01:16.400Z,19.86
2019-06-10T20:03:48.749Z,19.89
2019-06-10T20:06:21.832Z,19.88
2019-06-10T20:08:54.123Z,19.84
2019-06-10T20:11:26.519Z,19.88
2019-06-10T20:13:58.748Z,19.71
2019-06-10T20:16:35.628Z,19.67
2019-06-10T20:19:08.621Z,19.75
2019-06-10T20:21:43.560Z,19.74
2019-06-10T20:24:18.802Z,19.77
2019-06-10T20:26:52.920Z,19.82
2019-06-10T20:29:25.504Z,19.83
2019-06-10T20:32:04.848Z,19.75
2019-06-10T20:34:37.707Z,19.70
2019-06-10T20:37:10.160Z,19.54
2019-06-10T20:39:44.220Z,19.44
2019-06-10T20:42:18.191Z,19.40
2019-06-10T20:44:54.728Z,19.41
2019-06-10T20:47:30.058Z,19.43
2019-06-10T20:50:03.171Z,19.25
2019-06-10T20:52:37.962Z,19.08
2019-06-10T20:55:12.561Z,18.91
2019-06-10T20:57:56.223Z,18.80
2019-06-10T21:00:45.665Z,18.75
2019-06-10T21:03:20.013Z,18.72
2019-06-10T21:05:53.474Z,18.64
2019-06-10T21:08:28.205Z,18.65
2019-06-10T21:11:02.911Z,18.63
2019-06-10T21:13:37.118Z,18.63
2019-06-10T21:16:09.491Z,18.65
2019-06-10T21:18:46.859Z,18.69
2019-06-10T21:21:22.629Z,18.72
2019-06-10T21:23:55.267Z,18.77
2019-06-10T21:26:27.560Z,18.79
2019-06-10T21:29:03.632Z,18.78
2019-06-10T21:31:36.088Z,18.83
2019-06-10T21:34:09.180Z,18.72
2019-06-10T21:36:41.552Z,18.63
2019-06-10T21:39:14.030Z,18.62
2019-06-10T21:41:47.079Z,18.67
2019-06-10T21:44:22.995Z,18.74
2019-06-10T21:46:56.115Z,18.81
2019-06-10T21:49:32.208Z,18.85
2019-06-10T21:52:04.694Z,18.89
2019-06-10T21:54:37.615Z,18.89
2019-06-10T21:57:09.952Z,18.94
2019-06-10T21:59:43.792Z,18.87
2019-06-10T22:02:17.375Z,18.87
2019-06-10T22:04:55.386Z,18.83
2019-06-10T22:07:27.920Z,18.77
2019-06-10T22:10:02.528Z,18.75
2019-06-10T22:12:35.388Z,18.72
2019-06-10T22:15:07.948Z,18.70
2019-06-10T22:17:42.291Z,18.72
2019-06-10T22:20:14.886Z,18.61
2019-06-10T22:22:48.506Z,18.48
2019-06-10T22:25:22.397Z,18.44
2019-06-10T22:27:56.247Z,18.50
2019-06-10T22:30:32.124Z,18.47
2019-06-10T22:33:04.698Z,18.45
2019-06-10T22:35:36.987Z,18.44
2019-06-10T22:38:09.357Z,18.44
2019-06-10T22:40:42.690Z,18.44
2019-06-10T22:43:16.074Z,18.45
2019-06-10T22:45:49.478Z,18.27
2019-06-10T22:48:22.532Z,18.06
2019-06-10T22:50:55.466Z,17.96
2019-06-10T22:53:27.767Z,17.99
2019-06-10T22:56:00.027Z,17.88
2019-06-10T22:58:32.480Z,17.78
2019-06-10T23:01:04.983Z,17.71
2019-06-10T23:03:37.184Z,17.61
2019-06-10T23:06:09.497Z,17.60
2019-06-10T23:08:43.676Z,17.52
2019-06-10T23:11:16.216Z,17.50
2019-06-10T23:14:18.339Z,17.55
2019-06-10T23:16:53.537Z,17.54
2019-06-10T23:19:27.246Z,17.48
2019-06-10T23:22:00.585Z,17.45
2019-06-10T23:24:35.039Z,17.47
2019-06-10T23:27:07.406Z,17.48
2019-06-10T23:29:39.649Z,17.46
2019-06-10T23:32:12.986Z,17.42
2019-06-10T23:34:45.347Z,17.41
2019-06-10T23:37:17.681Z,17.38
2019-06-10T23:39:50.373Z,17.49
2019-06-10T23:42:23.505Z,17.43
2019-06-10T23:44:57.244Z,17.43
2019-06-10T23:47:29.934Z,17.42
2019-06-10T23:50:04.136Z,17.41
2019-06-10T23:52:36.894Z,17.42
2019-06-10T23:55:09.219Z,17.37
2019-06-10T23:57:42.178Z,17.36
